Time;durP1;ratioP1;P1;durP2;ratioP2;P2;SDS_P1;SDS_P2;PMS_P1;PMS_P2;Temp;Humidity;BMP_temperature;BMP_pressure;BME280_temperature;BME280_humidity;BME280_pressure;Samples;Min_cycle;Max_cycle;Signal;HPM_P1;HPM_P2
2023/08/05 00:04:07;;;;;;;;;;;;;;;19.57;100.00;98645.37;4362371;32;35003;-89
2023/08/05 00:06:40;;;;;;;;;;;;;;;19.80;100.00;98680.66;4348780;32;33227;-87
2023/08/05 00:09:11;;;;;;;;;;;;;;;20.08;98.07;98699.88;4367660;32;33583;-86
2023/08/05 00:11:41;;;;;;;;;;;;;;;20.27;96.79;98699.44;4364877;32;34335;-87
2023/08/05 00:14:09;;;;;;;;;;;;;;;20.46;94.76;98680.56;4373489;32;33758;-86
2023/08/05 00:16:43;;;;;;;;;;;;;;;20.47;94.31;98632.22;4361530;32;33377;-88
2023/08/05 00:19:44;;;;;;;;;;;;;;;;;;;;;
2023/08/05 00:22:38;;;;;;;;;;;;;;;20.09;97.65;98606.78;4368694;32;34883;-91
2023/08/05 00:25:15;;;;;;;;;;;;;;;20.43;94.25;98597.31;4361951;32;34669;-89
2023/08/05 00:27:43;;;;;;;;;;;;;;;20.42;94.32;98629.06;4355969;32;33780;-89
2023/08/05 00:30:14;;;;;;;;;;;;;;;20.25;94.48;98633.72;4357775;32;34840;-88
2023/08/05 00:32:45;;;;;;;;;;;;;;;20.17;95.70;98632.56;4364943;32;33645;-89
2023/08/05 00:35:25;;;;;;;;;;;;;;;20.26;94.02;98624.03;4353588;32;33865;-89
2023/08/05 00:41:04;;;;;;;;;;;;;;;20.45;93.71;98605.97;4376266;32;35067;-88
2023/08/05 00:43:32;;;;;;;;;;;;;;;20.61;90.15;98568.00;4443172;32;34993;-88
2023/08/05 00:46:05;;;;;;;;;;;;;;;20.51;92.65;98588.88;4447864;32;34321;-87
2023/08/05 00:51:28;;;;;;;;;;;;;;;20.94;91.36;98534.88;4426813;32;36972;-89
2023/08/05 00:54:21;;;;;;;;;;;;;;;21.26;86.26;98427.81;4441664;32;33374;-90
2023/08/05 00:56:55;;;;;;;;;;;;;;;20.85;89.52;98400.16;4446648;32;35176;-88
2023/08/05 00:59:23;;;;;;;;;;;;;;;20.88;88.57;98401.72;4445387;32;33250;-88
2023/08/05 01:02:06;;;;;;;;;;;;;;;21.09;88.11;98454.59;4427127;32;34382;-90
2023/08/05 01:14:31;;;;;;;;;;;;;;;21.74;85.93;98488.28;4564710;27;19968;-92
2023/08/05 01:17:24;;;;;;;;;;;;;;;21.29;89.05;98458.38;4333761;33;33845;-92
2023/08/05 01:19:57;;;;;;;;;;;;;;;21.70;87.17;98470.19;4339562;33;34553;-92
2023/08/05 01:29:30;;;;;;;;;;;;;;;22.14;84.46;98464.00;4343690;32;35920;-91
2023/08/05 01:32:07;;;;;;;;;;;;;;;22.31;83.35;98477.69;4349566;33;34898;-93
2023/08/05 01:44:52;;;;;;;;;;;;;;;21.91;85.12;98509.88;4285231;33;36794;-91
2023/08/05 01:47:21;;;;;;;;;;;;;;;21.22;91.29;98534.50;4293310;33;32920;-91
2023/08/05 01:49:51;;;;;;;;;;;;;;;21.01;93.72;98480.72;4289044;33;33263;-89
2023/08/05 01:52:19;;;;;;;;;;;;;;;21.85;85.75;98470.78;4299384;33;34062;-90
2023/08/05 01:54:49;;;;;;;;;;;;;;;21.75;86.71;98452.19;4286282;33;34206;-91
2023/08/05 01:57:20;;;;;;;;;;;;;;;21.57;88.67;98445.69;4287656;33;34382;-91
2023/08/05 02:00:05;;;;;;;;;;;;;;;21.61;89.11;98432.16;4288500;33;34359;-92
2023/08/05 02:09:42;;;;;;;;;;;;;;;22.23;85.64;98430.75;4305056;33;34844;-93
2023/08/05 02:12:39;;;;;;;;;;;;;;;22.36;84.02;98402.34;4294841;33;33567;-93
2023/08/05 02:15:12;;;;;;;;;;;;;;;22.26;83.33;98374.19;4317352;33;34134;-92
2023/08/05 02:17:52;;;;;;;;;;;;;;;21.93;85.79;98383.84;4322563;33;37197;-92
2023/08/05 02:20:36;;;;;;;;;;;;;;;21.79;87.54;98384.13;4317763;33;31614;-92
2023/08/05 02:23:26;;;;;;;;;;;;;;;21.97;87.37;98371.25;4329564;33;32181;-92
2023/08/05 02:26:11;;;;;;;;;;;;;;;22.20;86.58;98375.50;4341945;33;33442;-91
2023/08/05 02:31:53;;;;;;;;;;;;;;;22.48;84.09;98378.53;4332104;32;34977;-92
2023/08/05 02:34:51;;;;;;;;;;;;;;;22.39;84.73;98389.84;4322712;33;36286;-91
2023/08/05 02:37:41;;;;;;;;;;;;;;;22.25;86.00;98377.78;4337944;33;34646;-93
2023/08/05 02:40:36;;;;;;;;;;;;;;;22.54;83.71;98360.38;4326513;33;33600;-92
2023/08/05 02:44:03;;;;;;;;;;;;;;;22.30;84.86;98375.59;4328728;33;33319;-93
2023/08/05 10:12:43;;;;;;;;;;;;;;;29.17;61.15;98477.37;4213833;33;35233;-92
2023/08/05 10:40:45;;;;;;;;;;;;;;;29.56;60.15;98474.78;4154165;34;35196;-93
2023/08/05 12:09:04;;;;;;;;;;;;;;;30.44;57.49;98464.91;4101952;35;35274;-92
2023/08/05 13:05:59;;;;;;;;;;;;;;;30.84;53.84;98431.69;4111702;34;36275;-91
2023/08/05 13:08:34;;;;;;;;;;;;;;;30.68;54.83;98432.63;4120138;34;34311;-92
2023/08/05 13:11:06;;;;;;;;;;;;;;;30.32;55.73;98422.50;4126466;34;33980;-90
2023/08/05 13:13:35;;;;;;;;;;;;;;;29.58;57.58;98415.84;4124251;34;35145;-90
2023/08/05 13:16:08;;;;;;;;;;;;;;;29.37;58.49;98421.75;4123741;34;34381;-90
2023/08/05 13:18:40;;;;;;;;;;;;;;;29.13;59.22;98424.28;4125367;34;35335;-91
2023/08/05 13:21:17;;;;;;;;;;;;;;;29.06;59.37;98425.97;4108377;34;33718;-91
2023/08/05 13:26:20;;;;;;;;;;;;;;;28.98;60.93;98409.13;4121246;34;35081;-89
2023/08/05 13:28:52;;;;;;;;;;;;;;;29.28;60.01;98399.56;4118494;34;33585;-90
2023/08/05 13:31:29;;;;;;;;;;;;;;;29.56;59.24;98413.34;4198532;34;33194;-90
2023/08/05 13:34:01;;;;;;;;;;;;;;;29.67;58.79;98396.97;4212206;33;33827;-91
2023/08/05 13:39:06;;;;;;;;;;;;;;;29.72;57.70;98391.91;4196555;34;33881;-89
2023/08/05 13:41:39;;;;;;;;;;;;;;;29.69;57.23;98391.41;4200298;34;33161;-89
2023/08/05 13:44:10;;;;;;;;;;;;;;;30.01;58.84;98403.81;4209511;34;34135;-91
2023/08/05 13:46:48;;;;;;;;;;;;;;;30.43;56.02;98407.91;4200726;34;33502;-91
2023/08/05 13:49:32;;;;;;;;;;;;;;;30.75;55.03;98420.19;4210302;34;35447;-91
2023/08/05 13:52:18;;;;;;;;;;;;;;;30.85;54.09;98421.81;4200383;34;31974;-91
2023/08/05 13:54:50;;;;;;;;;;;;;;;30.80;54.36;98430.34;4200244;34;35048;-89
2023/08/05 13:57:19;;;;;;;;;;;;;;;30.94;51.80;98432.25;4202656;34;33239;-90
2023/08/05 13:59:48;;;;;;;;;;;;;;;30.71;52.60;98415.37;4199971;34;32813;-90
2023/08/05 14:02:17;;;;;;;;;;;;;;;30.72;52.95;98427.75;4172661;34;1060253;-90
2023/08/05 14:04:56;;;;;;;;;;;;;;;30.65;53.63;98419.59;4198255;34;34126;-90
2023/08/05 14:07:31;;;;;;;;;;;;;;;30.46;54.41;98420.91;4195283;34;34731;-90
2023/08/05 14:10:02;;;;;;;;;;;;;;;30.25;54.46;98415.34;4208438;34;33518;-89
2023/08/05 14:12:31;;;;;;;;;;;;;;;29.89;56.13;98413.19;4205504;34;34629;-87
2023/08/05 14:15:00;;;;;;;;;;;;;;;29.82;56.84;98393.53;4189876;34;35140;-89
2023/08/05 14:17:37;;;;;;;;;;;;;;;29.49;59.38;98407.84;4197220;34;35185;-89
2023/08/05 14:20:07;;;;;;;;;;;;;;;29.34;60.36;98407.72;4204573;34;33657;-87
2023/08/05 14:22:41;;;;;;;;;;;;;;;29.09;60.50;98398.94;4198907;34;32747;-89
2023/08/05 14:25:11;;;;;;;;;;;;;;;28.58;62.42;98376.94;4193702;34;33789;-87
2023/08/05 14:27:43;;;;;;;;;;;;;;;28.18;63.68;98369.75;4197683;34;33269;-88
2023/08/05 14:30:13;;;;;;;;;;;;;;;27.99;65.81;98382.34;4200910;34;33938;-88
2023/08/05 14:33:02;;;;;;;;;;;;;;;27.97;66.99;98400.34;4213765;34;33719;-88
2023/08/05 14:35:34;;;;;;;;;;;;;;;28.18;65.75;98391.91;4198953;34;32407;-88
2023/08/05 14:38:03;;;;;;;;;;;;;;;28.15;65.41;98399.38;4199596;34;34382;-88
2023/08/05 14:40:34;;;;;;;;;;;;;;;28.16;64.69;98401.06;4188705;34;35075;-87
2023/08/05 14:43:03;;;;;;;;;;;;;;;27.61;66.46;98400.53;4197635;34;34468;-88
2023/08/05 14:45:32;;;;;;;;;;;;;;;27.36;66.62;98415.56;4189585;34;34232;-86
2023/08/05 14:48:10;;;;;;;;;;;;;;;27.30;67.57;98418.84;4198788;34;32738;-89
2023/08/05 14:50:39;;;;;;;;;;;;;;;26.82;69.51;98441.47;4205099;34;34091;-89
2023/08/05 14:53:14;;;;;;;;;;;;;;;27.41;67.55;98447.03;4202791;34;32178;-87
2023/08/05 14:55:49;;;;;;;;;;;;;;;27.63;65.92;98458.97;4188937;34;34235;-87
2023/08/05 14:58:19;;;;;;;;;;;;;;;27.30;67.62;98472.09;4204214;34;33318;-88
2023/08/05 15:00:50;;;;;;;;;;;;;;;27.44;65.55;98468.87;4208755;34;34226;-89
2023/08/05 15:03:19;;;;;;;;;;;;;;;27.22;67.05;98475.56;4196911;34;33610;-88
2023/08/05 15:05:53;;;;;;;;;;;;;;;27.14;66.74;98494.09;4188767;34;34710;-89
2023/08/05 15:08:21;;;;;;;;;;;;;;;27.03;66.79;98502.31;4196239;34;35663;-88
2023/08/05 15:11:02;;;;;;;;;;;;;;;26.94;67.83;98495.25;4213429;34;33531;-89
2023/08/05 15:13:39;;;;;;;;;;;;;;;26.90;67.73;98475.28;4195510;34;31309;-89
2023/08/05 15:16:08;;;;;;;;;;;;;;;26.93;67.75;98483.78;4204575;34;34397;-87
2023/08/05 15:18:44;;;;;;;;;;;;;;;26.66;67.59;98487.38;4198848;34;34043;-89
2023/08/05 15:21:18;;;;;;;;;;;;;;;26.54;68.32;98500.06;4200376;34;34757;-89
2023/08/05 15:23:47;;;;;;;;;;;;;;;26.64;67.89;98501.81;4191314;34;33513;-91
2023/08/05 15:26:22;;;;;;;;;;;;;;;26.39;68.57;98502.38;4195878;34;34763;-88
2023/08/05 15:28:52;;;;;;;;;;;;;;;26.44;68.05;98506.41;4208931;34;34203;-88
2023/08/05 15:31:22;;;;;;;;;;;;;;;26.54;67.53;98525.84;4204068;34;33987;-91
2023/08/05 15:33:51;;;;;;;;;;;;;;;26.51;68.38;98523.44;4188371;34;33768;-89
2023/08/05 15:36:24;;;;;;;;;;;;;;;26.56;67.41;98522.03;4187256;34;35424;-88
2023/08/05 15:38:53;;;;;;;;;;;;;;;26.55;66.92;98520.34;4208256;34;33868;-91
2023/08/05 15:41:25;;;;;;;;;;;;;;;26.45;68.84;98529.34;4194448;34;33718;-88
2023/08/05 15:43:56;;;;;;;;;;;;;;;26.41;68.55;98523.50;4199496;34;32345;-90
2023/08/05 15:46:25;;;;;;;;;;;;;;;26.35;67.79;98511.62;4189203;34;33977;-88
2023/08/05 15:48:54;;;;;;;;;;;;;;;26.33;68.23;98496.81;4208013;34;35408;-89
2023/08/05 15:51:24;;;;;;;;;;;;;;;26.15;69.02;98494.13;4191730;34;34564;-89
2023/08/05 15:53:54;;;;;;;;;;;;;;;26.08;69.82;98485.09;4201715;34;34613;-89
2023/08/05 15:56:30;;;;;;;;;;;;;;;26.12;69.37;98471.34;4188241;34;35322;-91
2023/08/05 15:59:02;;;;;;;;;;;;;;;26.10;69.25;98457.38;4207311;34;33883;-89
2023/08/05 16:01:43;;;;;;;;;;;;;;;25.93;68.92;98419.16;4205433;34;32845;-90
2023/08/05 16:04:17;;;;;;;;;;;;;;;25.63;69.68;98391.03;4201545;34;32886;-89
2023/08/05 16:06:47;;;;;;;;;;;;;;;25.22;70.98;98379.88;4201828;34;34762;-88
2023/08/05 16:09:24;;;;;;;;;;;;;;;24.88;71.71;98368.91;4202093;34;33746;-93
2023/08/05 16:11:58;;;;;;;;;;;;;;;24.58;73.06;98373.44;4193223;34;33939;-87
2023/08/05 16:14:38;;;;;;;;;;;;;;;24.33;74.03;98363.37;4208053;34;32852;-90
2023/08/05 16:17:07;;;;;;;;;;;;;;;24.23;74.21;98369.50;4189754;34;33428;-87
2023/08/05 16:19:43;;;;;;;;;;;;;;;24.01;75.09;98338.81;4202544;34;36581;-88
2023/08/05 16:22:13;;;;;;;;;;;;;;;24.07;74.98;98326.84;4203015;34;33630;-91
2023/08/05 16:24:49;;;;;;;;;;;;;;;23.94;75.64;98339.53;4197971;34;34520;-88
2023/08/05 16:27:22;;;;;;;;;;;;;;;23.96;76.19;98348.16;4191790;34;33903;-89
2023/08/05 16:29:54;;;;;;;;;;;;;;;24.24;75.08;98350.00;4203979;34;33719;-89
2023/08/05 16:32:25;;;;;;;;;;;;;;;24.03;76.02;98349.28;4199101;33;35541;-90
2023/08/05 16:34:55;;;;;;;;;;;;;;;24.10;75.78;98374.25;4201820;34;33684;-91
2023/08/05 16:37:27;;;;;;;;;;;;;;;24.11;75.21;98385.69;4198884;34;32976;-92
2023/08/05 16:39:57;;;;;;;;;;;;;;;24.32;74.96;98390.88;4190884;34;34438;-89
2023/08/05 16:42:30;;;;;;;;;;;;;;;24.56;73.40;98396.62;4203764;34;33699;-90
2023/08/05 16:45:01;;;;;;;;;;;;;;;24.40;74.36;98417.50;4192461;34;34305;-87
2023/08/05 16:47:42;;;;;;;;;;;;;;;24.52;74.07;98434.16;4199812;34;34756;-88
2023/08/05 16:50:16;;;;;;;;;;;;;;;24.63;73.78;98432.19;4194161;34;32447;-89
2023/08/05 16:52:45;;;;;;;;;;;;;;;24.72;71.95;98435.84;4198023;34;34534;-89
2023/08/05 16:55:22;;;;;;;;;;;;;;;24.72;72.36;98427.88;4200602;34;33639;-88
2023/08/05 16:58:03;;;;;;;;;;;;;;;24.70;71.77;98424.53;4193842;34;34690;-89
2023/08/05 17:00:41;;;;;;;;;;;;;;;24.75;70.84;98411.69;4199603;34;34491;-90
2023/08/05 17:03:22;;;;;;;;;;;;;;;24.53;73.07;98399.56;4202704;34;33647;-88
2023/08/05 17:05:52;;;;;;;;;;;;;;;24.58;71.76;98383.22;4198208;34;33842;-91
2023/08/05 17:08:30;;;;;;;;;;;;;;;24.33;73.21;98369.53;4201022;34;33760;-91
2023/08/05 17:11:07;;;;;;;;;;;;;;;24.28;73.56;98369.09;4193331;34;35292;-89
2023/08/05 17:13:36;;;;;;;;;;;;;;;24.40;72.46;98364.50;4189538;34;35469;-91
2023/08/05 17:16:15;;;;;;;;;;;;;;;24.10;74.55;98362.84;4191444;34;34239;-92
2023/08/05 17:18:50;;;;;;;;;;;;;;;24.37;72.89;98354.19;4196073;34;34494;-89
2023/08/05 17:21:19;;;;;;;;;;;;;;;24.14;74.13;98353.59;4188112;34;34869;-91
2023/08/05 17:23:58;;;;;;;;;;;;;;;24.10;74.33;98339.81;4189239;34;34933;-91
2023/08/05 17:26:31;;;;;;;;;;;;;;;24.14;74.54;98341.22;4196762;34;35611;-89
2023/08/05 17:29:02;;;;;;;;;;;;;;;24.26;74.43;98357.81;4182551;34;34254;-89
2023/08/05 17:31:33;;;;;;;;;;;;;;;24.20;73.11;98364.50;4195650;34;33541;-90
2023/08/05 17:34:03;;;;;;;;;;;;;;;23.88;73.15;98359.47;4190346;34;34365;-91
2023/08/05 17:36:34;;;;;;;;;;;;;;;23.82;73.76;98347.63;4190870;34;33933;-90
2023/08/05 17:39:03;;;;;;;;;;;;;;;23.50;75.45;98350.41;4191556;34;34462;-88
2023/08/05 17:41:36;;;;;;;;;;;;;;;23.79;74.13;98347.03;4196836;34;34905;-91
2023/08/05 17:44:05;;;;;;;;;;;;;;;23.99;72.83;98346.09;4207475;34;33769;-90
2023/08/05 17:46:37;;;;;;;;;;;;;;;23.87;73.92;98338.41;4191400;34;34867;-89
2023/08/05 17:49:08;;;;;;;;;;;;;;;23.80;74.16;98351.34;4195886;34;34856;-89
2023/08/05 17:51:43;;;;;;;;;;;;;;;23.33;76.41;98343.94;4196029;34;34193;-89
2023/08/05 17:54:12;;;;;;;;;;;;;;;23.62;75.01;98317.56;4193366;34;34135;-88
2023/08/05 17:56:50;;;;;;;;;;;;;;;23.75;74.76;98319.13;4191271;34;34421;-88
2023/08/05 17:59:23;;;;;;;;;;;;;;;23.81;74.79;98313.31;4186148;34;34605;-89
2023/08/05 18:01:59;;;;;;;;;;;;;;;23.75;74.37;98330.59;4189702;34;34105;-89
2023/08/05 18:04:34;;;;;;;;;;;;;;;24.09;73.30;98330.22;4188217;34;35577;-90
2023/08/05 18:07:06;;;;;;;;;;;;;;;23.83;75.02;98322.78;4196731;34;33746;-89
2023/08/05 18:09:36;;;;;;;;;;;;;;;23.53;76.85;98313.06;4188009;34;34056;-88
2023/08/05 18:12:09;;;;;;;;;;;;;;;23.60;77.17;98308.06;4190795;34;34080;-90
2023/08/05 18:14:40;;;;;;;;;;;;;;;24.26;72.85;98295.03;4191839;34;34429;-90
2023/08/05 18:17:18;;;;;;;;;;;;;;;23.63;75.84;98284.84;4190734;34;33608;-90
2023/08/05 18:19:52;;;;;;;;;;;;;;;23.68;75.65;98279.13;4210768;34;33891;-90
2023/08/05 18:22:21;;;;;;;;;;;;;;;23.84;74.58;98287.38;4209349;34;35521;-89
2023/08/05 18:24:52;;;;;;;;;;;;;;;23.85;75.17;98286.41;4190698;34;35350;-88
2023/08/05 18:27:21;;;;;;;;;;;;;;;23.97;73.93;98291.56;4202536;34;32282;-91
2023/08/05 18:29:52;;;;;;;;;;;;;;;24.00;74.55;98283.34;4208177;34;34110;-93
2023/08/05 18:32:21;;;;;;;;;;;;;;;24.10;74.18;98278.06;4204627;34;36269;-90
2023/08/05 18:34:56;;;;;;;;;;;;;;;24.40;72.36;98277.03;4207598;34;34249;-92
2023/08/05 18:37:26;;;;;;;;;;;;;;;24.36;72.44;98281.78;4210271;34;31567;-89
2023/08/05 18:39:58;;;;;;;;;;;;;;;24.24;73.11;98274.97;4204576;34;36912;-89
2023/08/05 18:42:27;;;;;;;;;;;;;;;24.23;73.46;98270.63;4210804;34;33746;-93
2023/08/05 18:44:58;;;;;;;;;;;;;;;24.24;73.18;98259.06;4199931;34;34616;-91
2023/08/05 18:47:31;;;;;;;;;;;;;;;24.33;72.82;98265.31;4199670;34;34300;-92
2023/08/05 18:50:11;;;;;;;;;;;;;;;24.17;73.28;98261.44;4200680;34;34116;-90
2023/08/05 18:52:42;;;;;;;;;;;;;;;23.94;74.28;98247.63;4188012;34;36297;-90
2023/08/05 18:55:12;;;;;;;;;;;;;;;24.02;73.78;98269.00;4197795;34;36753;-89
2023/08/05 18:57:43;;;;;;;;;;;;;;;23.79;75.45;98278.19;4202541;34;33561;-88
2023/08/05 19:00:13;;;;;;;;;;;;;;;24.06;74.25;98296.03;4195039;34;35740;-92
2023/08/05 19:02:45;;;;;;;;;;;;;;;23.82;75.99;98292.00;4195648;34;35728;-89
2023/08/05 19:05:16;;;;;;;;;;;;;;;24.08;74.44;98303.84;4192662;34;35038;-90
2023/08/05 19:07:46;;;;;;;;;;;;;;;24.06;74.94;98311.91;4190529;34;33147;-91
2023/08/05 19:10:18;;;;;;;;;;;;;;;24.01;74.83;98322.09;4202657;34;35730;-93
2023/08/05 19:13:03;;;;;;;;;;;;;;;24.07;74.87;98332.16;4204724;34;34632;-88
2023/08/05 19:15:40;;;;;;;;;;;;;;;24.15;74.98;98344.69;4202261;34;33941;-91
2023/08/05 19:18:11;;;;;;;;;;;;;;;24.28;74.52;98362.00;4199422;34;32926;-88
2023/08/05 19:20:43;;;;;;;;;;;;;;;24.03;74.74;98375.78;4203396;34;33273;-87
2023/08/05 19:23:13;;;;;;;;;;;;;;;24.10;74.38;98392.81;4210142;34;34635;-86
2023/08/05 19:25:42;;;;;;;;;;;;;;;24.04;74.97;98401.28;4200563;34;33529;-86
2023/08/05 19:28:14;;;;;;;;;;;;;;;24.04;74.87;98415.41;4202983;34;33444;-86
2023/08/05 19:30:44;;;;;;;;;;;;;;;24.05;73.61;98434.78;4193229;34;32587;-87
2023/08/05 19:33:16;;;;;;;;;;;;;;;23.93;73.95;98443.81;4201233;34;33075;-86
2023/08/05 19:35:48;;;;;;;;;;;;;;;23.79;74.91;98450.31;4200857;34;33067;-86
2023/08/05 19:38:20;;;;;;;;;;;;;;;23.90;74.48;98454.69;4198867;34;33967;-85
2023/08/05 19:41:01;;;;;;;;;;;;;;;23.92;73.90;98458.00;4203747;34;33638;-86
2023/08/05 19:43:30;;;;;;;;;;;;;;;23.86;73.65;98456.75;4204740;34;34269;-87
2023/08/05 19:46:06;;;;;;;;;;;;;;;23.89;73.59;98453.00;4203756;34;33766;-85
2023/08/05 19:48:38;;;;;;;;;;;;;;;24.03;72.53;98442.84;4201556;33;31956;-85
2023/08/05 19:51:13;;;;;;;;;;;;;;;23.85;72.97;98450.62;4202169;34;34732;-85
2023/08/05 19:53:46;;;;;;;;;;;;;;;23.59;74.09;98452.03;4199165;34;34101;-84
2023/08/05 19:56:24;;;;;;;;;;;;;;;23.52;75.00;98449.06;4208812;33;33028;-86
2023/08/05 19:58:54;;;;;;;;;;;;;;;23.23;75.81;98453.37;4198991;34;33621;-84
2023/08/05 20:01:27;;;;;;;;;;;;;;;23.31;76.12;98457.03;4208060;34;33864;-83
2023/08/05 20:03:57;;;;;;;;;;;;;;;23.46;75.35;98454.03;4201074;34;34779;-84
2023/08/05 20:06:32;;;;;;;;;;;;;;;23.17;76.82;98462.66;4201842;34;34559;-82
2023/08/05 20:09:02;;;;;;;;;;;;;;;23.35;75.79;98450.50;4200649;34;33141;-84
2023/08/05 20:11:33;;;;;;;;;;;;;;;23.11;77.32;98439.37;4203418;34;33871;-86
2023/08/05 20:14:03;;;;;;;;;;;;;;;23.06;76.63;98426.53;4201457;34;35162;-83
2023/08/05 20:16:36;;;;;;;;;;;;;;;22.76;78.39;98436.06;4204023;34;34080;-83
2023/08/05 20:19:05;;;;;;;;;;;;;;;22.54;78.26;98431.72;4208442;34;33171;-86
2023/08/05 20:21:45;;;;;;;;;;;;;;;22.53;78.14;98410.69;4204747;34;34348;-83
2023/08/05 20:24:19;;;;;;;;;;;;;;;22.71;76.99;98430.31;4202386;34;34204;-86
2023/08/05 20:26:49;;;;;;;;;;;;;;;22.46;78.52;98436.78;4202708;34;34005;-83
2023/08/05 20:29:26;;;;;;;;;;;;;;;22.43;78.94;98447.63;4200719;34;32584;-85
2023/08/05 20:31:56;;;;;;;;;;;;;;;22.40;78.70;98476.06;4207262;34;33705;-83
2023/08/05 20:34:28;;;;;;;;;;;;;;;22.39;79.61;98467.31;4200474;34;34816;-83
2023/08/05 20:37:02;;;;;;;;;;;;;;;22.51;79.72;98466.31;4202506;34;33719;-83
2023/08/05 20:39:31;;;;;;;;;;;;;;;22.58;79.14;98459.56;4202284;34;33102;-85
2023/08/05 20:42:04;;;;;;;;;;;;;;;22.74;77.67;98460.97;4192403;34;32280;-83
2023/08/05 20:44:33;;;;;;;;;;;;;;;22.49;78.09;98470.88;4203997;34;34121;-82
2023/08/05 20:47:03;;;;;;;;;;;;;;;22.39;78.97;98475.25;4198448;34;34588;-84
2023/08/05 20:49:31;;;;;;;;;;;;;;;22.63;78.11;98474.22;4199834;34;32873;-83
2023/08/05 20:52:09;;;;;;;;;;;;;;;22.59;77.77;98468.31;4200544;34;33326;-83
2023/08/05 20:54:38;;;;;;;;;;;;;;;22.42;78.79;98467.06;4202374;34;33950;-84
2023/08/05 20:57:09;;;;;;;;;;;;;;;22.33;79.42;98446.69;4207516;34;34889;-86
2023/08/05 20:59:39;;;;;;;;;;;;;;;22.41;78.55;98436.34;4199660;34;33121;-83
2023/08/05 21:02:07;;;;;;;;;;;;;;;21.98;81.51;98429.22;4201304;34;33826;-83
2023/08/05 21:04:36;;;;;;;;;;;;;;;22.09;81.08;98407.22;4203823;34;32562;-83
2023/08/05 21:07:12;;;;;;;;;;;;;;;22.07;79.22;98390.66;4203580;34;33674;-84
2023/08/05 21:09:41;;;;;;;;;;;;;;;21.75;80.95;98394.09;4200320;34;33635;-86
2023/08/05 21:12:11;;;;;;;;;;;;;;;21.88;80.67;98386.03;4203273;34;33583;-85
2023/08/05 21:14:39;;;;;;;;;;;;;;;21.98;79.99;98388.75;4200159;34;33866;-84
2023/08/05 21:17:10;;;;;;;;;;;;;;;22.01;80.08;98393.78;4199016;34;34785;-85
2023/08/05 21:19:40;;;;;;;;;;;;;;;21.35;84.32;98378.75;4208033;34;32287;-86
2023/08/05 21:22:15;;;;;;;;;;;;;;;21.90;81.72;98386.75;4202899;34;34019;-85
2023/08/05 21:24:45;;;;;;;;;;;;;;;21.87;81.87;98374.62;4193589;34;35238;-84
2023/08/05 21:27:14;;;;;;;;;;;;;;;22.14;79.89;98371.53;4199545;34;34047;-84
2023/08/05 21:29:43;;;;;;;;;;;;;;;22.11;79.38;98363.88;4208723;34;33636;-87
2023/08/05 21:32:12;;;;;;;;;;;;;;;22.03;79.38;98371.56;4199560;34;34081;-84
2023/08/05 21:34:42;;;;;;;;;;;;;;;22.05;79.19;98372.28;4198894;34;33791;-85
2023/08/05 21:37:13;;;;;;;;;;;;;;;21.77;81.22;98368.44;4200039;34;34112;-89
2023/08/05 21:39:49;;;;;;;;;;;;;;;21.99;80.52;98383.38;4192462;34;35430;-85
2023/08/05 21:42:21;;;;;;;;;;;;;;;21.92;80.56;98379.56;4202931;34;34477;-85
2023/08/05 21:44:49;;;;;;;;;;;;;;;22.20;78.76;98396.66;4198872;34;33817;-88
2023/08/05 21:47:21;;;;;;;;;;;;;;;22.19;79.57;98394.13;4205386;34;34794;-85
2023/08/05 21:49:50;;;;;;;;;;;;;;;22.13;80.42;98387.50;4202263;34;32822;-85
2023/08/05 21:52:22;;;;;;;;;;;;;;;22.54;76.50;98381.50;4206910;34;33197;-87
2023/08/05 21:54:53;;;;;;;;;;;;;;;22.23;78.13;98363.84;4207415;34;33699;-85
2023/08/05 21:57:23;;;;;;;;;;;;;;;22.30;77.91;98359.75;4200690;34;35924;-89
2023/08/05 21:59:51;;;;;;;;;;;;;;;22.24;77.68;98341.78;4202083;34;33354;-85
2023/08/05 22:02:20;;;;;;;;;;;;;;;21.94;79.57;98338.84;4199826;34;34941;-86
2023/08/05 22:04:51;;;;;;;;;;;;;;;21.97;79.87;98350.97;4207275;34;33722;-85
2023/08/05 22:07:28;;;;;;;;;;;;;;;22.17;78.10;98339.59;4198636;34;33685;-85
2023/08/05 22:09:58;;;;;;;;;;;;;;;22.11;78.32;98334.00;4199236;34;32226;-84
2023/08/05 22:12:27;;;;;;;;;;;;;;;22.05;77.57;98324.75;4200975;34;33859;-85
2023/08/05 22:14:59;;;;;;;;;;;;;;;21.82;77.91;98302.03;4189679;34;34004;-89
2023/08/05 22:17:28;;;;;;;;;;;;;;;21.70;79.38;98283.59;4206922;34;34327;-86
2023/08/05 22:19:57;;;;;;;;;;;;;;;21.73;79.36;98282.53;4189446;34;34064;-86
2023/08/05 22:22:28;;;;;;;;;;;;;;;21.70;79.60;98296.81;4202920;34;33231;-86
2023/08/05 22:24:59;;;;;;;;;;;;;;;21.81;79.93;98300.38;4187485;34;32384;-85
2023/08/05 22:27:31;;;;;;;;;;;;;;;22.00;79.46;98292.63;4204425;34;34156;-86
2023/08/05 22:30:00;;;;;;;;;;;;;;;22.03;79.11;98281.78;4201666;34;33023;-86
2023/08/05 22:32:34;;;;;;;;;;;;;;;22.03;78.73;98273.88;4188493;34;34232;-86
2023/08/05 22:35:03;;;;;;;;;;;;;;;21.85;80.60;98262.19;4196252;34;34259;-86
2023/08/05 22:37:32;;;;;;;;;;;;;;;22.17;79.03;98270.91;4188182;34;34084;-88
2023/08/05 22:40:05;;;;;;;;;;;;;;;22.36;77.88;98272.06;4206643;34;33712;-88
2023/08/05 22:42:36;;;;;;;;;;;;;;;22.41;77.85;98259.28;4201402;34;34217;-86
2023/08/05 22:45:05;;;;;;;;;;;;;;;22.32;77.91;98260.88;4196562;34;35108;-86
2023/08/05 22:47:34;;;;;;;;;;;;;;;22.20;78.77;98253.13;4188555;34;35382;-87
2023/08/05 22:50:06;;;;;;;;;;;;;;;22.40;77.95;98259.41;4205069;34;31682;-90
2023/08/05 22:52:39;;;;;;;;;;;;;;;22.44;77.45;98234.41;4188068;34;34442;-87
2023/08/05 22:55:09;;;;;;;;;;;;;;;22.28;77.52;98229.59;4199480;34;35644;-86
2023/08/05 22:57:38;;;;;;;;;;;;;;;22.35;77.40;98204.34;4198917;34;32897;-86
2023/08/05 23:00:07;;;;;;;;;;;;;;;22.56;75.65;98204.28;4199044;34;33411;-87
2023/08/05 23:02:40;;;;;;;;;;;;;;;22.35;76.64;98215.75;4195900;34;34498;-87
2023/08/05 23:05:09;;;;;;;;;;;;;;;22.32;77.39;98220.44;4198763;34;32618;-85
2023/08/05 23:07:40;;;;;;;;;;;;;;;22.24;78.11;98221.09;4196521;34;33881;-86
2023/08/05 23:10:11;;;;;;;;;;;;;;;22.45;77.23;98223.72;4201927;34;33626;-84
2023/08/05 23:12:41;;;;;;;;;;;;;;;22.60;76.32;98210.97;4206552;34;33211;-86
2023/08/05 23:15:10;;;;;;;;;;;;;;;22.41;77.22;98214.38;4200805;34;35281;-85
2023/08/05 23:17:39;;;;;;;;;;;;;;;22.41;77.33;98218.81;4199819;34;34354;-85
2023/08/05 23:20:12;;;;;;;;;;;;;;;22.53;76.83;98225.69;4207550;34;33595;-87
2023/08/05 23:22:45;;;;;;;;;;;;;;;22.60;76.45;98220.72;4198514;34;33159;-86
2023/08/05 23:25:15;;;;;;;;;;;;;;;22.58;76.42;98228.78;4207014;34;33632;-86
2023/08/05 23:27:49;;;;;;;;;;;;;;;22.57;76.59;98233.22;4188117;34;34899;-88
2023/08/05 23:30:18;;;;;;;;;;;;;;;22.60;76.77;98242.69;4205213;34;33818;-88
2023/08/05 23:32:50;;;;;;;;;;;;;;;22.58;76.25;98239.34;4198510;34;33495;-87
2023/08/05 23:35:19;;;;;;;;;;;;;;;22.53;76.71;98239.75;4197316;34;35229;-87
2023/08/05 23:37:51;;;;;;;;;;;;;;;22.50;76.36;98223.31;4196592;34;33173;-87
2023/08/05 23:40:21;;;;;;;;;;;;;;;22.65;75.64;98210.59;4204887;34;32932;-88
2023/08/05 23:42:52;;;;;;;;;;;;;;;22.53;76.27;98213.31;4189192;34;33155;-88
2023/08/05 23:45:20;;;;;;;;;;;;;;;22.50;76.05;98215.41;4198933;34;35459;-87
2023/08/05 23:47:49;;;;;;;;;;;;;;;22.61;75.44;98219.75;4206855;34;34429;-87
2023/08/05 23:50:22;;;;;;;;;;;;;;;22.44;76.45;98229.12;4206538;34;32632;-90
2023/08/05 23:52:55;;;;;;;;;;;;;;;22.39;76.83;98236.59;4208261;34;34638;-88
2023/08/05 23:55:25;;;;;;;;;;;;;;;22.45;76.09;98242.22;4195106;34;34406;-88
2023/08/05 23:57:57;;;;;;;;;;;;;;;22.46;75.87;98259.72;4210725;34;34464;-88
